Flight Track Log - Related Links

Times and Time Zones

All times are in EDT time to prevent confusion due to time zone crossing. See the RPA4939 flight status page for this flight to view local times or setup timezone preferences in your user account.

Time Position Orientation Groundspeed Altitude Reporting Facility
EDT Latitude Longitude Course Direction KTS MPH feet Rate Location/Type
01:41PM 39.0483 -108.4700 154° Southeast 192 221 9,200  Level Denver Center
01:42PM 38.9992 -108.4392 154° Southeast 199 229 11,600 2,419 Climbing Denver Center
01:43PM 38.9664 -108.3661 120° Southeast 221 254 14,200 2,032 Climbing Denver Center
01:44PM 38.9297 -108.2931 123° Southeast 252 290 15,800 1,548 Climbing Denver Center
01:45PM 38.8986 -108.2097 116° Southeast 268 308 17,400 1,790 Climbing Denver Center
01:46PM 38.8614 -108.1119 116° Southeast 273 314 19,500 1,694 Climbing Denver Center
01:47PM 38.8292 -108.0269 116° Southeast 278 320 20,900 1,452 Climbing Denver Center
01:48PM 38.7908 -107.9281 116° Southeast 280 322 22,500 1,016 Climbing Denver Center
01:49PM 38.7569 -107.8367 115° Southeast 296 341 23,000 240 Climbing Denver Center
01:50PM 38.7558 -107.6992 91° East 362 417 23,000  Level Denver Center
01:51PM 38.7864 -107.5728 73° East 387 445 23,000  Level Denver Center
01:52PM 38.8206 -107.4167 74° East 401 461 23,000  Level Denver Center
01:53PM 38.8483 -107.2900 74° East 408 470 23,000  Level Denver Center
01:54PM 38.8833 -107.1231 75° East 413 475 23,000  Level Denver Center
01:55PM 38.9131 -106.9878 74° East 412 474 23,000  Level Denver Center
01:56PM 38.9467 -106.8314 75° East 408 470 23,000  Level Denver Center
01:57PM 38.9733 -106.6994 75° East 404 465 23,000  Level Denver Center
01:58PM 39.0067 -106.5439 75° East 404 465 23,000  Level Denver Center
01:59PM 39.0342 -106.4111 75° East 404 465 23,000  Level Denver Center
02:01PM 39.0658 -106.2558 75° East 402 463 23,000  Level Denver Center
02:02PM 39.0906 -106.1344 75° East 407 468 23,000 -435 Level Denver Center
02:03PM 39.1261 -105.9658 75° East 408 470 22,100 -1,113 Descending Denver Center
02:04PM 39.1539 -105.8286 75° East 400 460 20,700 -1,306 Descending Denver Center
02:05PM 39.1806 -105.6939 76° East 393 452 19,400 -1,306 Descending Denver Center
02:06PM 39.2072 -105.5606 75° East 386 444 18,000 -1,403 Descending Denver Center
02:07PM 39.2339 -105.4206 76° East 379 436 16,500 -1,306 Descending Denver Center
02:08PM 39.2608 -105.2858 75° East 366 421 15,300 -1,161 Descending Denver Center
02:09PM 39.2833 -105.1678 76° East 349 402 14,100 -1,113 Descending Denver Center
02:10PM 39.3203 -105.0614 66° East 316 364 13,000 -677 Descending Denver Center
02:11PM 39.3883 -104.9889 39° Northeast 317 365 12,700 -484 Descending Denver Center
02:12PM 39.4494 -104.8975 49° Northeast 315 362 12,000 -726 Descending Denver Center
02:13PM 39.5072 -104.8156 48° Northeast 310 357 11,200 -1,161 Descending Denver Center
02:14PM 39.5747 -104.7381 41° Northeast 307 353 9,600 -1,296 Descending Denver Center
02:15PM 39.6431 -104.6897 29° Northeast 284 327 8,500 -768 Descending Denver Center
02:16PM 39.7150 -104.6886 North 241 277 8,000 -677 Descending Denver Center
02:17PM 39.7744 -104.6878 North 220 253 7,100 -871 Descending Denver Center
02:18PM 39.8211 -104.6881 360° North 169 194 6,200 -774 Descending Denver Center
02:19PM 39.8592 -104.6875 North 134 154 5,500 -677 Descending Denver Center
02:21PM 39.8500 -104.6667 339° North  Level FlightAware Approximate
02:28PM 39.8617 -104.6732 339° North  Level Estimated
02:29PM 39.8617 -104.6732 339° North  Level Estimated

Login

Don't have an account? Register now (free) for customized features, flight alerts, and more!